createdAt,value
2019-02-08T00:01:16.239Z,2.53
2019-02-08T00:03:46.102Z,2.45
2019-02-08T00:06:15.707Z,2.38
2019-02-08T00:08:45.255Z,2.33
2019-02-08T00:11:15.464Z,2.37
2019-02-08T00:13:45.001Z,2.49
2019-02-08T00:16:14.534Z,2.41
2019-02-08T00:18:44.403Z,2.44
2019-02-08T00:21:14.106Z,2.44
2019-02-08T00:23:43.718Z,2.35
2019-02-08T00:26:13.416Z,2.44
2019-02-08T00:28:42.900Z,2.34
2019-02-08T00:31:12.436Z,2.21
2019-02-08T00:33:41.996Z,2.38
2019-02-08T00:36:11.658Z,2.41
2019-02-08T00:38:41.137Z,2.35
2019-02-08T00:41:10.659Z,2.31
2019-02-08T00:43:40.204Z,2.41
2019-02-08T00:46:09.724Z,2.30
2019-02-08T00:48:39.273Z,2.19
2019-02-08T00:51:08.782Z,2.20
2019-02-08T00:53:38.306Z,2.07
2019-02-08T00:56:09.149Z,2.14
2019-02-08T00:58:38.675Z,2.07
2019-02-08T01:01:08.271Z,1.98
2019-02-08T01:03:37.861Z,1.97
2019-02-08T01:06:08.027Z,1.97
2019-02-08T01:08:37.708Z,2.02
2019-02-08T01:11:07.660Z,1.87
2019-02-08T01:13:37.238Z,1.97
2019-02-08T01:16:07.133Z,2.00
2019-02-08T01:18:36.645Z,2.00
2019-02-08T01:21:06.396Z,2.03
2019-02-08T01:23:41.030Z,1.89
2019-02-08T01:26:07.227Z,2.02
2019-02-08T01:28:36.750Z,2.07
2019-02-08T01:31:06.416Z,1.77
2019-02-08T01:33:36.025Z,2.03
2019-02-08T01:36:05.776Z,1.80
2019-02-08T01:38:35.257Z,1.94
2019-02-08T01:41:04.935Z,1.79
2019-02-08T01:43:34.467Z,2.00
2019-02-08T01:46:04.565Z,2.04
2019-02-08T01:48:34.093Z,2.00
2019-02-08T01:51:03.587Z,2.02
2019-02-08T01:53:33.077Z,1.91
2019-02-08T01:56:02.578Z,1.75
2019-02-08T01:58:32.256Z,1.78
2019-02-08T02:01:02.899Z,1.73
2019-02-08T02:03:32.427Z,1.60
2019-02-08T02:06:01.920Z,1.69
2019-02-08T02:08:31.500Z,1.73
2019-02-08T02:11:01.007Z,1.54
2019-02-08T02:13:31.098Z,1.59
2019-02-08T02:16:00.614Z,1.58
2019-02-08T02:18:30.175Z,1.57
2019-02-08T02:20:59.708Z,1.55
2019-02-08T02:23:29.198Z,1.63
2019-02-08T02:25:59.561Z,1.73
2019-02-08T02:28:29.058Z,1.57
2019-02-08T02:30:58.565Z,1.66
2019-02-08T02:33:28.084Z,1.63
2019-02-08T02:35:57.588Z,1.39
2019-02-08T02:38:27.469Z,1.26
2019-02-08T02:40:56.984Z,1.07
2019-02-08T02:43:26.471Z,1.23
2019-02-08T02:45:56.000Z,1.28
2019-02-08T02:48:25.534Z,1.07
2019-02-08T02:50:55.905Z,1.11
2019-02-08T02:53:25.404Z,1.09
2019-02-08T02:55:54.942Z,0.89
2019-02-08T02:58:24.460Z,0.63
2019-02-08T03:00:54.043Z,0.40
2019-02-08T03:03:24.072Z,0.48
2019-02-08T03:05:53.684Z,0.10
2019-02-08T03:08:23.215Z,-0.18
2019-02-08T03:10:52.706Z,-0.34
2019-02-08T03:13:22.228Z,-0.09
2019-02-08T03:15:52.296Z,-0.24
2019-02-08T03:18:22.054Z,-0.61
2019-02-08T03:20:51.635Z,-0.49
2019-02-08T03:23:21.238Z,-0.20
2019-02-08T03:25:50.774Z,-0.77
2019-02-08T03:28:20.502Z,-0.35
2019-02-08T03:30:54.415Z,-0.66
2019-02-08T03:33:24.046Z,-0.78
2019-02-08T03:35:53.551Z,-0.17
2019-02-08T03:38:23.149Z,-0.15
2019-02-08T03:40:52.710Z,-0.19
2019-02-08T03:43:23.475Z,-0.14
2019-02-08T03:45:53.741Z,-0.01
2019-02-08T03:48:23.354Z,0.03
2019-02-08T03:50:52.831Z,-0.04
2019-02-08T03:53:22.334Z,0.03
2019-02-08T03:55:58.151Z,0.08
2019-02-08T03:58:23.454Z,-0.10
2019-02-08T04:01:00.436Z,-0.06
2019-02-08T04:03:30.089Z,-0.09
2019-02-08T04:05:59.755Z,0.00
2019-02-08T04:08:29.293Z,-0.02
2019-02-08T04:10:58.848Z,0.02
2019-02-08T04:13:28.362Z,-0.06
2019-02-08T04:15:57.966Z,-0.09
2019-02-08T04:18:46.815Z,-0.08
2019-02-08T04:21:35.774Z,-0.09
2019-02-08T04:24:05.338Z,-0.17
2019-02-08T04:26:35.278Z,-0.36
2019-02-08T04:29:05.120Z,-0.74
2019-02-08T04:31:34.633Z,-0.94
2019-02-08T04:34:04.400Z,-0.99
2019-02-08T04:36:33.986Z,-1.12
2019-02-08T04:39:05.175Z,-1.20
2019-02-08T04:41:34.672Z,-0.83
2019-02-08T04:44:04.473Z,-0.89
2019-02-08T04:46:34.034Z,-0.47
2019-02-08T04:49:03.670Z,-0.44
2019-02-08T04:51:33.163Z,-0.42
2019-02-08T04:54:02.780Z,-0.42
2019-02-08T04:56:33.557Z,-0.29
2019-02-08T04:59:03.166Z,-0.37
2019-02-08T05:01:32.754Z,-0.03
2019-02-08T05:04:02.265Z,-0.05
2019-02-08T05:06:31.783Z,0.03
2019-02-08T05:09:02.196Z,0.03
2019-02-08T05:11:31.739Z,-0.12
2019-02-08T05:14:01.256Z,-0.29
2019-02-08T05:16:30.768Z,-0.48
2019-02-08T05:19:00.285Z,-0.56
2019-02-08T05:21:30.581Z,-0.95
2019-02-08T05:24:00.124Z,-1.13
2019-02-08T05:26:29.626Z,-1.21
2019-02-08T05:28:59.178Z,-1.23
2019-02-08T05:31:28.676Z,-1.26
2019-02-08T05:33:58.852Z,-1.31
2019-02-08T05:36:28.417Z,-1.41
2019-02-08T05:39:17.289Z,-1.39
2019-02-08T05:41:46.822Z,-1.44
2019-02-08T05:44:16.332Z,-1.50
2019-02-08T05:46:45.864Z,-1.58
2019-02-08T05:49:15.524Z,-1.67
2019-02-08T05:51:45.943Z,-1.78
2019-02-08T05:54:15.512Z,-1.91
2019-02-08T05:56:45.100Z,-1.89
2019-02-08T05:59:33.960Z,-1.95
2019-02-08T06:02:03.526Z,-2.04
2019-02-08T06:04:33.112Z,-2.07
2019-02-08T06:07:22.064Z,-2.09
2019-02-08T06:09:51.607Z,-2.79
2019-02-08T06:12:21.243Z,-2.24
2019-02-08T06:14:50.758Z,-2.35
2019-02-08T06:17:20.305Z,-1.95
2019-02-08T06:19:49.898Z,-1.90
2019-02-08T06:22:20.418Z,-2.04
2019-02-08T06:24:49.964Z,-2.18
2019-02-08T06:27:19.583Z,-2.19
2019-02-08T06:29:49.092Z,-2.25
2019-02-08T06:32:18.729Z,-2.09
2019-02-08T06:34:48.853Z,-1.70
2019-02-08T06:37:18.372Z,-1.51
2019-02-08T06:39:47.922Z,-2.03
2019-02-08T06:42:17.466Z,-1.55
2019-02-08T06:44:46.971Z,-1.17
2019-02-08T06:47:17.115Z,-1.08
2019-02-08T06:49:46.656Z,-1.12
2019-02-08T06:52:16.190Z,-1.01
2019-02-08T06:54:45.708Z,-1.21
2019-02-08T06:57:16.902Z,-1.49
2019-02-08T06:59:48.074Z,-1.58
2019-02-08T07:02:19.229Z,-1.38
2019-02-08T07:04:50.423Z,-1.32
2019-02-08T07:07:30.084Z,-0.85
2019-02-08T07:10:03.980Z,-0.50
2019-02-08T07:12:35.209Z,-0.47
2019-02-08T07:15:09.156Z,-0.48
2019-02-08T07:17:42.998Z,-0.39
2019-02-08T07:20:14.660Z,-0.30
2019-02-08T07:22:51.254Z,-0.30
2019-02-08T07:25:22.465Z,-0.23
2019-02-08T07:27:56.401Z,-0.04
2019-02-08T07:30:52.310Z,0.04
2019-02-08T07:33:29.274Z,0.12
2019-02-08T07:36:00.483Z,0.14
2019-02-08T07:38:31.964Z,0.20
2019-02-08T07:41:08.827Z,0.65
2019-02-08T07:43:49.785Z,1.11
2019-02-08T07:46:22.022Z,2.87
2019-02-08T07:48:56.230Z,3.12
2019-02-08T07:51:27.471Z,2.03
2019-02-08T07:53:59.664Z,1.77
2019-02-08T07:56:30.975Z,3.40
2019-02-08T07:59:18.375Z,7.29
2019-02-08T08:01:52.562Z,10.49
2019-02-08T08:04:27.669Z,12.86
2019-02-08T08:07:02.113Z,13.39
2019-02-08T08:09:40.372Z,14.55
2019-02-08T08:12:11.730Z,15.35
2019-02-08T08:15:00.981Z,16.46
2019-02-08T08:17:48.049Z,17.14
2019-02-08T08:20:21.631Z,15.80
2019-02-08T08:22:55.488Z,13.46
2019-02-08T08:25:33.999Z,13.32
2019-02-08T08:28:22.435Z,15.80
2019-02-08T08:30:52.767Z,14.07
2019-02-08T08:33:32.122Z,16.22
2019-02-08T08:36:11.818Z,17.18
2019-02-08T08:39:14.275Z,17.18
2019-02-08T08:42:09.320Z,17.02
2019-02-08T08:45:14.732Z,15.97
2019-02-08T08:48:00.121Z,16.01
2019-02-08T08:51:03.883Z,17.45
2019-02-08T08:54:07.900Z,17.32
2019-02-08T08:57:03.073Z,16.78
2019-02-08T08:59:57.886Z,17.47
2019-02-08T09:02:37.617Z,17.89
2019-02-08T09:05:51.032Z,18.13
2019-02-08T09:08:44.826Z,18.23
2019-02-08T09:11:27.715Z,19.91
2019-02-08T09:14:28.620Z,19.63
2019-02-08T09:17:41.505Z,19.13
2019-02-08T09:20:21.409Z,18.75
2019-02-08T09:23:04.221Z,18.50
2019-02-08T09:26:06.714Z,17.95
2019-02-08T09:28:49.817Z,16.77
2019-02-08T09:31:32.877Z,14.37
2019-02-08T09:34:24.358Z,13.34
2019-02-08T09:37:37.488Z,14.35
2019-02-08T09:40:20.505Z,12.34
2019-02-08T09:43:16.716Z,10.80
2019-02-08T09:46:15.342Z,10.46
2019-02-08T09:49:10.263Z,10.50
2019-02-08T09:51:50.034Z,11.19
2019-02-08T09:54:52.543Z,11.36
2019-02-08T09:57:47.033Z,11.15
2019-02-08T10:00:26.705Z,11.09
2019-02-08T10:03:24.563Z,10.76
2019-02-08T10:06:21.075Z,10.32
2019-02-08T10:09:26.437Z,10.80
2019-02-08T10:12:22.856Z,10.15
2019-02-08T10:15:31.291Z,9.14
2019-02-08T10:18:37.034Z,9.30
2019-02-08T10:21:23.093Z,9.66
2019-02-08T10:24:39.209Z,9.12
2019-02-08T10:27:28.033Z,9.74
2019-02-08T10:30:27.725Z,9.22
2019-02-08T10:33:45.200Z,8.84
2019-02-08T10:36:52.349Z,10.06
2019-02-08T10:39:45.707Z,10.17
2019-02-08T10:43:04.536Z,9.82
2019-02-08T10:46:19.164Z,10.20
2019-02-08T10:49:10.730Z,10.56
2019-02-08T10:52:18.073Z,11.12
2019-02-08T10:55:43.379Z,11.21
2019-02-08T10:58:51.376Z,11.56
2019-02-08T11:01:47.476Z,11.70
2019-02-08T11:04:42.652Z,11.22
2019-02-08T11:07:42.012Z,12.32
2019-02-08T11:10:52.098Z,13.77
2019-02-08T11:13:42.565Z,15.13
2019-02-08T11:16:33.536Z,15.14
2019-02-08T11:19:19.342Z,14.90
2019-02-08T11:21:50.381Z,14.30
2019-02-08T11:24:21.979Z,16.36
2019-02-08T11:26:51.733Z,15.19
2019-02-08T11:29:21.293Z,15.60
2019-02-08T11:31:51.042Z,17.10
2019-02-08T11:34:20.770Z,14.87
2019-02-08T11:36:50.310Z,14.53
2019-02-08T11:39:20.294Z,15.38
2019-02-08T11:41:50.300Z,15.70
2019-02-08T11:44:20.560Z,17.09
2019-02-08T11:46:50.183Z,15.04
2019-02-08T11:49:19.847Z,14.38
2019-02-08T11:51:50.447Z,14.73
2019-02-08T11:54:20.143Z,18.93
2019-02-08T11:56:49.733Z,17.73
2019-02-08T11:59:19.558Z,17.26
2019-02-08T12:01:49.490Z,15.66
2019-02-08T12:04:19.645Z,17.22
2019-02-08T12:06:49.256Z,14.91
2019-02-08T12:09:18.875Z,14.40
2019-02-08T12:11:48.411Z,12.61
2019-02-08T12:14:17.982Z,14.26
2019-02-08T12:16:47.607Z,15.69
2019-02-08T12:19:17.128Z,15.06
2019-02-08T12:21:46.724Z,15.18
2019-02-08T12:24:16.239Z,15.82
2019-02-08T12:26:45.739Z,16.68
2019-02-08T12:29:15.822Z,16.56
2019-02-08T12:31:45.382Z,16.17
2019-02-08T12:34:14.933Z,15.43
2019-02-08T12:36:44.458Z,16.40
2019-02-08T12:39:13.960Z,16.12
2019-02-08T12:41:44.399Z,15.50
2019-02-08T12:44:13.981Z,16.32
2019-02-08T12:46:43.600Z,15.09
2019-02-08T12:49:13.138Z,15.35
2019-02-08T12:51:42.638Z,14.02
2019-02-08T12:54:12.942Z,13.69
2019-02-08T12:56:45.530Z,14.86
2019-02-08T12:59:13.782Z,13.85
2019-02-08T13:01:43.288Z,13.52
2019-02-08T13:04:12.805Z,15.22
2019-02-08T13:06:42.459Z,20.32
2019-02-08T13:09:12.239Z,18.64
2019-02-08T13:11:42.223Z,16.58
2019-02-08T13:14:11.801Z,16.05
2019-02-08T13:16:41.374Z,14.74
2019-02-08T13:19:10.972Z,14.51
2019-02-08T13:21:40.660Z,14.03
2019-02-08T13:24:10.298Z,16.74
2019-02-08T13:26:39.822Z,12.94
2019-02-08T13:29:09.368Z,12.51
2019-02-08T13:31:38.967Z,13.98
2019-02-08T13:34:08.527Z,17.36
2019-02-08T13:36:38.099Z,19.23
2019-02-08T13:39:09.149Z,16.73
2019-02-08T13:41:38.674Z,19.25
2019-02-08T13:44:08.200Z,18.05
2019-02-08T13:46:37.934Z,20.51
2019-02-08T13:49:07.461Z,19.59
2019-02-08T13:51:37.037Z,16.72
2019-02-08T13:54:07.132Z,15.55
2019-02-08T13:56:36.691Z,14.80
2019-02-08T13:59:06.330Z,17.50
2019-02-08T14:01:35.897Z,17.75
2019-02-08T14:04:05.975Z,14.81
2019-02-08T14:06:35.491Z,17.48
2019-02-08T14:09:08.382Z,13.88
2019-02-08T14:11:37.965Z,14.16
2019-02-08T14:14:07.598Z,14.92
2019-02-08T14:16:37.140Z,15.25
2019-02-08T14:19:07.009Z,12.49
2019-02-08T14:21:36.531Z,10.01
2019-02-08T14:24:06.518Z,9.53
2019-02-08T14:26:36.108Z,9.76
2019-02-08T14:29:05.846Z,10.21
2019-02-08T14:31:35.401Z,10.07
2019-02-08T14:34:05.132Z,11.03
2019-02-08T14:36:34.659Z,11.31
2019-02-08T14:39:08.221Z,11.57
2019-02-08T14:41:37.744Z,10.82
2019-02-08T14:44:07.533Z,9.95
2019-02-08T14:46:37.052Z,10.30
2019-02-08T14:49:06.747Z,10.12
2019-02-08T14:51:36.382Z,9.70
2019-02-08T14:54:07.897Z,9.88
2019-02-08T14:56:37.500Z,9.31
2019-02-08T14:59:07.330Z,9.49
2019-02-08T15:01:36.901Z,9.36
2019-02-08T15:04:07.724Z,9.38
2019-02-08T15:06:37.430Z,9.02
2019-02-08T15:09:11.434Z,8.96
2019-02-08T15:11:40.985Z,8.23
2019-02-08T15:14:10.647Z,8.43
2019-02-08T15:16:40.135Z,8.15
2019-02-08T15:19:09.845Z,8.19
2019-02-08T15:21:39.361Z,8.33
2019-02-08T15:24:08.873Z,8.13
2019-02-08T15:26:38.407Z,7.94
2019-02-08T15:29:08.078Z,7.72
2019-02-08T15:31:37.678Z,7.48
2019-02-08T15:34:07.304Z,7.21
2019-02-08T15:36:36.874Z,7.20
2019-02-08T15:39:10.386Z,7.05
2019-02-08T15:41:39.885Z,6.94
2019-02-08T15:44:09.437Z,6.65
2019-02-08T15:46:38.931Z,6.49
2019-02-08T15:49:08.488Z,6.51
2019-02-08T15:51:38.051Z,6.41
2019-02-08T15:54:07.543Z,6.19
2019-02-08T15:56:37.962Z,6.10
2019-02-08T15:59:07.560Z,5.98
2019-02-08T16:01:37.135Z,5.54
2019-02-08T16:04:07.776Z,5.39
2019-02-08T16:06:37.260Z,4.82
2019-02-08T16:09:10.499Z,4.71
2019-02-08T16:11:40.042Z,4.81
2019-02-08T16:14:09.635Z,4.74
2019-02-08T16:16:39.188Z,4.76
2019-02-08T16:19:08.821Z,4.50
2019-02-08T16:21:38.352Z,3.82
2019-02-08T16:24:08.093Z,3.49
2019-02-08T16:26:37.633Z,3.12
2019-02-08T16:29:07.349Z,2.87
2019-02-08T16:31:36.910Z,2.66
2019-02-08T16:34:06.527Z,2.80
2019-02-08T16:36:36.137Z,2.52
2019-02-08T16:39:08.983Z,2.45
2019-02-08T16:41:38.471Z,2.21
2019-02-08T16:44:08.259Z,2.05
2019-02-08T16:46:37.789Z,1.85
2019-02-08T16:49:07.497Z,1.70
2019-02-08T16:51:37.085Z,1.67
2019-02-08T16:54:06.833Z,1.55
2019-02-08T16:56:36.397Z,1.48
2019-02-08T16:59:06.693Z,1.52
2019-02-08T17:01:36.279Z,1.39
2019-02-08T17:04:06.188Z,1.37
2019-02-08T17:06:35.727Z,1.28
2019-02-08T17:09:09.895Z,1.16
2019-02-08T17:11:39.468Z,1.04
2019-02-08T17:14:09.025Z,0.99
2019-02-08T17:16:38.560Z,1.00
2019-02-08T17:19:08.126Z,0.91
2019-02-08T17:21:37.655Z,0.94
2019-02-08T17:24:07.150Z,1.17
2019-02-08T17:26:36.721Z,1.01
2019-02-08T17:29:06.348Z,0.75
2019-02-08T17:31:35.907Z,0.62
2019-02-08T17:34:05.714Z,0.49
2019-02-08T17:36:35.330Z,0.64
2019-02-08T17:39:07.292Z,0.73
2019-02-08T17:41:36.902Z,0.66
2019-02-08T17:44:06.682Z,0.67
2019-02-08T17:46:36.274Z,0.53
2019-02-08T17:49:05.853Z,0.49
2019-02-08T17:51:36.909Z,0.36
2019-02-08T17:54:06.546Z,0.30
2019-02-08T17:56:36.101Z,0.72
2019-02-08T17:59:06.277Z,0.52
2019-02-08T18:01:35.811Z,0.36
2019-02-08T18:04:05.449Z,0.29
2019-02-08T18:06:35.009Z,0.19
2019-02-08T18:09:06.866Z,0.17
2019-02-08T18:11:36.424Z,0.10
2019-02-08T18:14:06.292Z,0.04
2019-02-08T18:16:35.875Z,-0.06
2019-02-08T18:19:05.530Z,-0.09
2019-02-08T18:21:35.129Z,-0.17
2019-02-08T18:24:04.661Z,-0.27
2019-02-08T18:26:34.204Z,-0.25
2019-02-08T18:29:03.754Z,-0.28
2019-02-08T18:31:33.800Z,-0.21
2019-02-08T18:34:03.333Z,-0.21
2019-02-08T18:36:32.881Z,-0.33
2019-02-08T18:39:02.387Z,-0.37
2019-02-08T18:41:31.971Z,-0.43
2019-02-08T18:44:02.038Z,-0.51
2019-02-08T18:46:31.664Z,-0.50
2019-02-08T18:49:01.200Z,-0.49
2019-02-08T18:51:30.753Z,-0.49
2019-02-08T18:54:00.287Z,-0.54
2019-02-08T18:56:30.730Z,-0.59
2019-02-08T18:59:00.254Z,-0.51
2019-02-08T19:01:30.919Z,-0.58
2019-02-08T19:04:00.431Z,-0.67
2019-02-08T19:06:30.018Z,-0.67
2019-02-08T19:08:59.543Z,-0.66
2019-02-08T19:11:29.096Z,-0.73
2019-02-08T19:13:58.703Z,-0.74
2019-02-08T19:16:28.244Z,-0.80
2019-02-08T19:18:57.789Z,-0.80
2019-02-08T19:21:27.438Z,-0.81
2019-02-08T19:23:56.946Z,-0.88
2019-02-08T19:26:26.541Z,-0.91
2019-02-08T19:28:56.037Z,-0.88
2019-02-08T19:31:25.591Z,-0.85
2019-02-08T19:33:55.699Z,-0.75
2019-02-08T19:36:25.391Z,-0.76
2019-02-08T19:38:54.920Z,-0.74
2019-02-08T19:41:24.496Z,-0.65
2019-02-08T19:43:54.059Z,-0.30
2019-02-08T19:46:24.250Z,-0.53
2019-02-08T19:48:53.792Z,-0.66
2019-02-08T19:51:23.500Z,-0.73
2019-02-08T19:53:52.998Z,-0.81
2019-02-08T19:56:22.544Z,-0.82
2019-02-08T19:58:52.746Z,-0.83
2019-02-08T20:01:22.306Z,-0.80
2019-02-08T20:03:51.855Z,-0.77
2019-02-08T20:06:21.405Z,-0.81
2019-02-08T20:08:50.965Z,-0.84
2019-02-08T20:11:21.128Z,-0.89
2019-02-08T20:13:50.715Z,-0.95
2019-02-08T20:16:20.328Z,-1.00
2019-02-08T20:18:49.906Z,-0.93
2019-02-08T20:21:19.533Z,-0.76
2019-02-08T20:23:49.870Z,-0.53
2019-02-08T20:26:19.406Z,-0.38
2019-02-08T20:28:48.963Z,-0.90
2019-02-08T20:31:18.501Z,-0.96
2019-02-08T20:33:48.037Z,-0.66
2019-02-08T20:36:18.242Z,-0.82
2019-02-08T20:38:47.813Z,-1.04
2019-02-08T20:41:17.404Z,-1.11
2019-02-08T20:43:47.215Z,-1.14
2019-02-08T20:46:16.760Z,-1.18
2019-02-08T20:48:47.019Z,-1.13
2019-02-08T20:51:16.712Z,-1.12
2019-02-08T20:53:46.317Z,-1.18
2019-02-08T20:56:15.934Z,-1.17
2019-02-08T20:58:50.308Z,-1.17
2019-02-08T21:01:16.950Z,-1.12
2019-02-08T21:03:46.586Z,-1.09
2019-02-08T21:06:16.188Z,-1.06
2019-02-08T21:08:45.808Z,-1.05
2019-02-08T21:11:15.309Z,-1.03
2019-02-08T21:13:44.878Z,-1.02
2019-02-08T21:16:14.660Z,-0.99
2019-02-08T21:18:44.216Z,-0.70
2019-02-08T21:21:13.725Z,-0.38
2019-02-08T21:23:43.311Z,-0.82
2019-02-08T21:26:12.884Z,-0.99
2019-02-08T21:28:42.566Z,-0.77
2019-02-08T21:31:12.072Z,-1.09
2019-02-08T21:33:41.647Z,-0.66
2019-02-08T21:36:11.253Z,-1.02
2019-02-08T21:38:40.876Z,-1.09
2019-02-08T21:41:10.423Z,-1.12
2019-02-08T21:43:40.238Z,-1.16
2019-02-08T21:46:09.792Z,-1.20
2019-02-08T21:48:39.350Z,-1.21
2019-02-08T21:51:08.927Z,-1.22
2019-02-08T21:53:38.482Z,-1.18
2019-02-08T21:56:08.109Z,-1.18
2019-02-08T21:58:37.890Z,-1.22
2019-02-08T22:01:07.726Z,-1.02
2019-02-08T22:03:37.335Z,-1.08
2019-02-08T22:06:08.295Z,-1.09
2019-02-08T22:08:37.906Z,-0.97
2019-02-08T22:11:07.492Z,-0.83
2019-02-08T22:13:37.047Z,-1.01
2019-02-08T22:16:06.671Z,-0.79
2019-02-08T22:18:37.069Z,-0.94
2019-02-08T22:21:06.764Z,-0.64
2019-02-08T22:23:36.302Z,-0.69
2019-02-08T22:26:05.983Z,-0.93
2019-02-08T22:28:35.611Z,-0.95
2019-02-08T22:31:05.519Z,-0.97
2019-02-08T22:33:35.085Z,-0.94
2019-02-08T22:36:04.691Z,-0.90
2019-02-08T22:38:34.248Z,-0.88
2019-02-08T22:41:03.847Z,-0.51
2019-02-08T22:43:34.187Z,-0.43
2019-02-08T22:46:03.879Z,-0.68
2019-02-08T22:48:33.432Z,-0.86
2019-02-08T22:51:02.978Z,-0.82
2019-02-08T22:53:32.519Z,-0.89
2019-02-08T22:56:02.276Z,-0.99
2019-02-08T22:58:32.090Z,-1.02
2019-02-08T23:01:08.999Z,-1.15
2019-02-08T23:03:38.810Z,-1.05
2019-02-08T23:06:08.431Z,-1.22
2019-02-08T23:08:38.294Z,-1.27
2019-02-08T23:11:08.282Z,-1.31
2019-02-08T23:13:37.831Z,-1.37
2019-02-08T23:16:07.600Z,-1.50
2019-02-08T23:18:37.117Z,-1.39
2019-02-08T23:21:06.892Z,-1.43
2019-02-08T23:23:36.441Z,-1.60
2019-02-08T23:26:06.386Z,-1.64
2019-02-08T23:28:36.055Z,-1.70
2019-02-08T23:31:05.994Z,-1.75
2019-02-08T23:33:35.603Z,-1.79
2019-02-08T23:36:05.514Z,-1.78
2019-02-08T23:38:35.040Z,-1.82
2019-02-08T23:41:04.980Z,-1.67
2019-02-08T23:43:34.895Z,-1.79
2019-02-08T23:46:04.600Z,-1.83
2019-02-08T23:48:34.289Z,-1.82
2019-02-08T23:51:05.277Z,-1.82
2019-02-08T23:53:34.798Z,-1.86
2019-02-08T23:56:04.427Z,-1.82
2019-02-08T23:58:33.952Z,-1.85
